Itatira, Brazil
Current Conditions -  °F | °C
As of 3:00 AM on Saturday 25 Oct 2014 (Local Time) from SBFZ Reporting Station
Broken Clouds Broken Clouds  
Wind Chill: 79°   Ceiling: 1700
Heat Index: 81°   Visibility: 6mi
Dew Point: 66°   Wind: 17mph
Humidity: 65%   Direction: 110°ESE
Pressure: 29.83"   Gusts: NA
Location:  4.5°S, 39.62°W
Report Text: SBFZ 250600Z 11015KT 9999 BKN017 26/19 Q1010
Loading
Personal Weather Stations






























Interactive Weather Map
Tropical Storm Tracking
New forecast layout! Learn more

10-Day Weather Forecast

Advertisements
Track Severe Weather on mobile